createdAt,value
2018-04-27T00:01:06.433Z,8.30
2018-04-27T00:03:33.089Z,8.20
2018-04-27T00:05:59.720Z,8.20
2018-04-27T00:08:26.325Z,8.10
2018-04-27T00:10:52.888Z,8.20
2018-04-27T00:13:19.485Z,8.20
2018-04-27T00:15:46.139Z,8.20
2018-04-27T00:18:12.842Z,8.20
2018-04-27T00:20:39.682Z,8.00
2018-04-27T00:25:39.689Z,8.00
2018-04-27T00:28:06.309Z,7.90
2018-04-27T00:30:32.894Z,7.90
2018-04-27T00:32:59.919Z,7.70
2018-04-27T00:35:26.522Z,7.80
2018-04-27T00:37:53.073Z,7.70
2018-04-27T00:40:19.650Z,7.70
2018-04-27T00:42:46.280Z,7.80
2018-04-27T00:45:13.134Z,7.90
2018-04-27T00:47:40.066Z,7.90
2018-04-27T00:50:07.149Z,7.80
2018-04-27T00:52:46.210Z,7.80
2018-04-27T00:55:13.889Z,7.80
2018-04-27T00:57:40.681Z,7.90
2018-04-27T01:00:07.283Z,7.90
2018-04-27T01:02:33.868Z,7.90
2018-04-27T01:05:00.569Z,7.80
2018-04-27T01:07:27.588Z,7.60
2018-04-27T01:09:54.537Z,7.50
2018-04-27T01:12:21.323Z,7.50
2018-04-27T01:14:47.965Z,7.60
2018-04-27T01:17:15.000Z,7.60
2018-04-27T01:19:41.701Z,7.60
2018-04-27T01:22:08.370Z,7.50
2018-04-27T01:24:36.032Z,7.40
2018-04-27T01:27:02.655Z,7.30
2018-04-27T01:29:29.285Z,7.30
2018-04-27T01:31:55.900Z,7.30
2018-04-27T01:34:22.437Z,7.30
2018-04-27T01:36:49.016Z,7.30
2018-04-27T01:39:15.668Z,7.30
2018-04-27T01:41:42.440Z,7.30
2018-04-27T01:44:09.195Z,7.30
2018-04-27T01:46:35.849Z,7.30
2018-04-27T01:49:02.452Z,7.20
2018-04-27T01:51:29.431Z,7.10
2018-04-27T01:53:56.031Z,7.20
2018-04-27T01:56:22.576Z,7.10
2018-04-27T01:58:49.150Z,7.00
2018-04-27T02:01:15.848Z,6.60
2018-04-27T02:03:42.594Z,6.50
2018-04-27T02:06:09.806Z,6.40
2018-04-27T02:08:36.396Z,6.30
2018-04-27T02:11:03.411Z,6.40
2018-04-27T02:13:30.028Z,6.40
2018-04-27T02:15:56.616Z,6.50
2018-04-27T02:18:23.156Z,6.60
2018-04-27T02:20:49.736Z,6.60
2018-04-27T02:23:16.784Z,6.60
2018-04-27T02:25:43.873Z,6.60
2018-04-27T02:28:10.912Z,6.60
2018-04-27T02:30:37.656Z,6.60
2018-04-27T02:33:04.217Z,6.60
2018-04-27T02:35:31.254Z,6.60
2018-04-27T02:37:58.220Z,6.50
2018-04-27T02:40:24.772Z,6.50
2018-04-27T02:42:51.373Z,6.50
2018-04-27T02:45:17.990Z,6.50
2018-04-27T02:47:44.670Z,6.30
2018-04-27T02:50:11.786Z,6.30
2018-04-27T02:52:38.885Z,6.30
2018-04-27T02:55:12.619Z,6.30
2018-04-27T02:57:39.631Z,6.20
2018-04-27T03:00:06.327Z,6.20
2018-04-27T03:02:33.128Z,6.30
2018-04-27T03:04:59.801Z,6.20
2018-04-27T03:07:26.380Z,6.10
2018-04-27T03:09:53.005Z,6.10
2018-04-27T03:12:19.580Z,6.20
2018-04-27T03:14:46.408Z,6.10
2018-04-27T03:17:13.510Z,6.00
2018-04-27T03:19:40.668Z,6.10
2018-04-27T03:22:07.255Z,6.10
2018-04-27T03:24:34.246Z,6.10
2018-04-27T03:27:00.875Z,6.10
2018-04-27T03:29:27.485Z,6.20
2018-04-27T03:31:54.056Z,6.20
2018-04-27T03:34:21.083Z,6.20
2018-04-27T03:36:47.684Z,6.20
2018-04-27T03:39:14.478Z,6.00
2018-04-27T03:41:41.360Z,5.90
2018-04-27T03:44:08.097Z,5.70
2018-04-27T03:46:34.672Z,5.60
2018-04-27T03:49:01.668Z,5.50
2018-04-27T03:51:28.632Z,5.40
2018-04-27T03:53:55.220Z,5.40
2018-04-27T03:56:22.157Z,5.10
2018-04-27T03:58:48.705Z,5.10
2018-04-27T04:04:31.574Z,5.20
2018-04-27T04:06:58.579Z,5.20
2018-04-27T04:09:25.481Z,5.30
2018-04-27T04:11:52.038Z,5.30
2018-04-27T04:14:18.595Z,5.40
2018-04-27T04:16:45.107Z,5.50
2018-04-27T04:19:11.646Z,5.60
2018-04-27T04:21:38.199Z,5.70
2018-04-27T04:24:11.783Z,5.90
2018-04-27T04:26:38.327Z,6.00
2018-04-27T04:29:04.843Z,5.80
2018-04-27T04:31:31.425Z,5.80
2018-04-27T04:33:58.338Z,5.90
2018-04-27T04:36:24.855Z,5.90
2018-04-27T04:38:51.395Z,5.80
2018-04-27T04:41:17.943Z,5.80
2018-04-27T04:43:44.460Z,5.70
2018-04-27T04:46:11.011Z,5.60
2018-04-27T04:48:37.554Z,5.60
2018-04-27T04:51:11.279Z,5.80
2018-04-27T04:53:38.208Z,5.90
2018-04-27T04:56:04.738Z,5.90
2018-04-27T04:58:31.292Z,6.00
2018-04-27T05:00:57.883Z,6.10
2018-04-27T05:03:24.823Z,6.10
2018-04-27T05:05:51.415Z,6.10
2018-04-27T05:08:18.035Z,6.30
2018-04-27T05:10:44.584Z,6.50
2018-04-27T05:13:11.520Z,6.80
2018-04-27T05:15:38.079Z,6.80
2018-04-27T05:18:21.691Z,7.30
2018-04-27T05:20:48.322Z,7.30
2018-04-27T05:23:14.847Z,7.60
2018-04-27T05:25:41.433Z,7.70
2018-04-27T05:28:08.047Z,7.90
2018-04-27T05:30:34.622Z,8.00
2018-04-27T05:33:04.059Z,8.10
2018-04-27T05:35:30.682Z,8.10
2018-04-27T05:37:57.258Z,8.20
2018-04-27T05:40:24.284Z,8.50
2018-04-27T05:42:50.944Z,8.50
2018-04-27T05:45:17.514Z,8.70
2018-04-27T05:47:44.140Z,8.80
2018-04-27T05:50:10.822Z,9.10
2018-04-27T05:52:37.354Z,9.30
2018-04-27T05:55:03.983Z,9.50
2018-04-27T05:57:30.582Z,9.80
2018-04-27T05:59:57.480Z,10.10
2018-04-27T06:02:24.059Z,10.10
2018-04-27T06:04:50.747Z,10.30
2018-04-27T06:07:17.646Z,10.50
2018-04-27T06:09:44.212Z,10.50
2018-04-27T06:12:10.921Z,10.80
2018-04-27T06:14:37.510Z,10.90
2018-04-27T06:17:04.450Z,10.90
2018-04-27T06:19:31.818Z,11.10
2018-04-27T06:21:58.382Z,11.40
2018-04-27T06:24:25.575Z,11.30
2018-04-27T06:26:52.563Z,11.50
2018-04-27T06:29:19.574Z,11.70
2018-04-27T06:31:46.269Z,11.80
2018-04-27T06:34:13.236Z,11.70
2018-04-27T06:36:40.159Z,11.80
2018-04-27T06:39:07.098Z,11.90
2018-04-27T06:41:34.396Z,11.90
2018-04-27T06:44:02.144Z,11.90
2018-04-27T06:46:29.635Z,12.20
2018-04-27T06:48:56.550Z,11.90
2018-04-27T06:51:23.815Z,11.80
2018-04-27T06:53:51.013Z,12.30
2018-04-27T06:56:18.393Z,12.40
2018-04-27T06:58:45.553Z,12.30
2018-04-27T07:01:13.630Z,12.60
2018-04-27T07:03:40.952Z,12.90
2018-04-27T07:06:08.128Z,12.70
2018-04-27T07:08:35.591Z,12.90
2018-04-27T07:11:02.603Z,12.90
2018-04-27T07:13:29.742Z,12.80
2018-04-27T07:15:57.553Z,12.80
2018-04-27T07:18:24.972Z,12.80
2018-04-27T07:20:52.560Z,12.90
2018-04-27T07:23:20.857Z,13.00
2018-04-27T07:25:48.250Z,13.40
2018-04-27T07:28:14.975Z,13.30
2018-04-27T07:30:41.583Z,13.30
2018-04-27T07:33:08.185Z,13.10
2018-04-27T07:35:34.771Z,13.00
2018-04-27T07:38:01.368Z,13.30
2018-04-27T07:40:27.963Z,13.60
2018-04-27T07:42:54.559Z,14.00
2018-04-27T07:45:21.192Z,14.00
2018-04-27T07:47:47.815Z,14.30
2018-04-27T07:50:14.395Z,14.20
2018-04-27T07:52:41.371Z,14.40
2018-04-27T07:55:07.990Z,14.40
2018-04-27T07:57:34.919Z,14.80
2018-04-27T08:00:01.568Z,14.80
2018-04-27T08:02:28.254Z,14.90
2018-04-27T08:04:54.851Z,15.10
2018-04-27T08:07:21.423Z,15.20
2018-04-27T08:09:48.087Z,15.30
2018-04-27T08:12:14.664Z,15.30
2018-04-27T08:14:41.303Z,15.40
2018-04-27T08:17:08.290Z,15.30
2018-04-27T08:19:34.871Z,15.30
2018-04-27T08:22:01.498Z,15.00
2018-04-27T08:24:28.214Z,15.30
2018-04-27T08:26:54.754Z,15.70
2018-04-27T08:29:21.739Z,16.10
2018-04-27T08:31:48.399Z,16.10
2018-04-27T08:34:14.991Z,16.20
2018-04-27T08:36:41.919Z,16.20
2018-04-27T08:39:08.486Z,16.20
2018-04-27T08:41:35.035Z,16.00
2018-04-27T08:44:01.640Z,16.20
2018-04-27T08:46:29.122Z,16.00
2018-04-27T08:48:55.651Z,16.40
2018-04-27T08:51:22.287Z,16.40
2018-04-27T08:53:48.932Z,16.20
2018-04-27T08:56:15.520Z,16.20
2018-04-27T08:58:42.148Z,16.40
2018-04-27T09:01:08.732Z,16.60
2018-04-27T09:03:35.295Z,16.70
2018-04-27T09:06:01.850Z,16.70
2018-04-27T09:08:29.127Z,16.80
2018-04-27T09:10:55.704Z,16.80
2018-04-27T09:13:22.260Z,16.70
2018-04-27T09:15:48.827Z,16.30
2018-04-27T09:18:15.368Z,16.50
2018-04-27T09:20:41.942Z,16.20
2018-04-27T09:23:08.506Z,16.50
2018-04-27T09:25:35.442Z,16.50
2018-04-27T09:28:02.382Z,16.10
2018-04-27T09:30:29.036Z,16.10
2018-04-27T09:32:55.574Z,16.30
2018-04-27T09:35:22.131Z,16.70
2018-04-27T09:37:48.703Z,17.00
2018-04-27T09:40:15.611Z,17.30
2018-04-27T09:42:42.237Z,17.30
2018-04-27T09:45:08.858Z,17.40
2018-04-27T09:47:35.816Z,17.00
2018-04-27T09:50:02.800Z,17.40
2018-04-27T09:52:29.375Z,17.40
2018-04-27T09:54:55.899Z,17.20
2018-04-27T09:57:22.531Z,17.40
2018-04-27T09:59:49.539Z,17.10
2018-04-27T10:02:16.123Z,17.10
2018-04-27T10:04:43.073Z,18.00
2018-04-27T10:07:10.067Z,18.10
2018-04-27T10:09:36.631Z,18.10
2018-04-27T10:12:03.226Z,17.50
2018-04-27T10:14:30.154Z,17.90
2018-04-27T10:16:56.706Z,18.00
2018-04-27T10:19:23.330Z,18.00
2018-04-27T10:21:49.899Z,17.80
2018-04-27T10:24:16.422Z,17.70
2018-04-27T10:26:42.985Z,17.60
2018-04-27T10:29:09.558Z,17.20
2018-04-27T10:31:36.118Z,17.50
2018-04-27T10:34:03.043Z,17.70
2018-04-27T10:36:29.638Z,17.70
2018-04-27T10:38:56.239Z,17.70
2018-04-27T10:41:22.863Z,17.60
2018-04-27T10:43:49.433Z,17.90
2018-04-27T10:46:16.054Z,18.30
2018-04-27T10:48:42.667Z,18.60
2018-04-27T10:51:09.658Z,18.50
2018-04-27T10:53:36.293Z,18.50
2018-04-27T10:56:02.969Z,18.60
2018-04-27T10:58:29.570Z,18.90
2018-04-27T11:00:56.531Z,18.90
2018-04-27T11:03:23.537Z,18.90
2018-04-27T11:05:50.192Z,18.90
2018-04-27T11:08:16.787Z,19.00
2018-04-27T11:10:43.783Z,19.20
2018-04-27T11:13:10.453Z,19.20
2018-04-27T11:15:37.011Z,18.60
2018-04-27T11:18:03.655Z,18.60
2018-04-27T11:20:30.292Z,18.90
2018-04-27T11:22:56.872Z,19.20
2018-04-27T11:25:23.517Z,19.20
2018-04-27T11:27:50.140Z,19.00
2018-04-27T11:30:16.672Z,19.00
2018-04-27T11:32:43.271Z,19.30
2018-04-27T11:35:10.294Z,20.00
2018-04-27T11:37:36.802Z,20.00
2018-04-27T11:40:03.384Z,20.30
2018-04-27T11:42:30.039Z,20.20
2018-04-27T11:44:56.628Z,20.00
2018-04-27T11:47:23.619Z,20.50
2018-04-27T11:49:50.194Z,20.50
2018-04-27T11:52:16.792Z,19.60
2018-04-27T11:54:43.775Z,20.10
2018-04-27T11:57:10.396Z,20.20
2018-04-27T11:59:37.344Z,20.30
2018-04-27T12:02:04.382Z,20.40
2018-04-27T12:04:31.053Z,20.40
2018-04-27T12:06:58.043Z,19.70
2018-04-27T12:09:24.656Z,19.70
2018-04-27T12:11:51.295Z,20.10
2018-04-27T12:14:18.259Z,20.30
2018-04-27T12:16:45.246Z,20.10
2018-04-27T12:19:11.794Z,20.10
2018-04-27T12:21:38.401Z,20.00
2018-04-27T12:24:04.940Z,20.00
2018-04-27T12:26:31.496Z,20.30
2018-04-27T12:28:58.047Z,20.60
2018-04-27T12:31:24.828Z,20.70
2018-04-27T12:33:51.235Z,20.60
2018-04-27T12:36:17.824Z,20.50
2018-04-27T12:38:44.435Z,20.80
2018-04-27T12:41:11.051Z,20.70
2018-04-27T12:43:37.640Z,21.30
2018-04-27T12:46:04.627Z,21.80
2018-04-27T12:48:31.303Z,21.80
2018-04-27T12:50:57.921Z,21.80
2018-04-27T12:53:24.544Z,22.00
2018-04-27T12:55:51.146Z,22.10
2018-04-27T12:58:17.735Z,22.20
2018-04-27T13:00:44.287Z,22.10
2018-04-27T13:03:11.235Z,21.50
2018-04-27T13:05:37.823Z,21.50
2018-04-27T13:08:04.435Z,20.70
2018-04-27T13:10:31.035Z,20.80
2018-04-27T13:12:57.620Z,21.50
2018-04-27T13:15:24.248Z,22.00
2018-04-27T13:17:50.912Z,22.10
2018-04-27T13:20:17.431Z,22.20
2018-04-27T13:22:43.983Z,22.20
2018-04-27T13:25:10.530Z,22.50
2018-04-27T13:27:37.075Z,22.50
2018-04-27T13:30:03.708Z,22.00
2018-04-27T13:32:30.331Z,22.00
2018-04-27T13:34:57.236Z,22.20
2018-04-27T13:37:23.870Z,22.20
2018-04-27T13:39:50.497Z,22.40
2018-04-27T13:42:17.449Z,22.80
2018-04-27T13:44:44.391Z,22.80
2018-04-27T13:47:11.360Z,23.00
2018-04-27T13:49:38.285Z,22.50
2018-04-27T13:52:04.907Z,22.50
2018-04-27T13:54:31.528Z,22.50
2018-04-27T13:56:58.112Z,22.70
2018-04-27T13:59:24.798Z,22.30
2018-04-27T14:01:51.412Z,22.30
2018-04-27T14:04:18.009Z,22.60
2018-04-27T14:06:44.594Z,22.60
2018-04-27T14:09:11.227Z,22.50
2018-04-27T14:11:37.816Z,22.90
2018-04-27T14:14:04.466Z,22.80
2018-04-27T14:16:31.104Z,22.70
2018-04-27T14:18:57.699Z,22.80
2018-04-27T14:21:24.683Z,23.10
2018-04-27T14:23:51.240Z,23.10
2018-04-27T14:26:17.824Z,23.30
2018-04-27T14:28:44.392Z,23.50
2018-04-27T14:31:10.967Z,23.60
2018-04-27T14:33:37.520Z,23.50
2018-04-27T14:36:04.108Z,23.40
2018-04-27T14:38:30.691Z,23.00
2018-04-27T14:40:57.744Z,22.80
2018-04-27T14:43:24.240Z,22.80
2018-04-27T14:45:50.814Z,22.60
2018-04-27T14:48:17.346Z,22.50
2018-04-27T14:50:43.981Z,22.60
2018-04-27T14:53:10.616Z,22.80
2018-04-27T14:55:37.184Z,22.70
2018-04-27T14:58:03.938Z,22.50
2018-04-27T15:00:30.920Z,22.50
2018-04-27T15:02:57.559Z,22.50
2018-04-27T15:05:24.598Z,22.50
2018-04-27T15:07:51.619Z,22.40
2018-04-27T15:10:18.195Z,22.40
2018-04-27T15:12:44.816Z,22.50
2018-04-27T15:15:11.475Z,22.50
2018-04-27T15:17:38.075Z,22.60
2018-04-27T15:20:04.687Z,22.50
2018-04-27T15:22:31.287Z,22.30
2018-04-27T15:24:57.831Z,22.30
2018-04-27T15:27:24.450Z,22.10
2018-04-27T15:29:51.059Z,21.70
2018-04-27T15:32:17.603Z,21.50
2018-04-27T15:34:44.178Z,21.60
2018-04-27T15:37:10.791Z,21.80
2018-04-27T15:39:37.751Z,21.90
2018-04-27T15:42:04.362Z,21.90
2018-04-27T15:44:30.975Z,21.80
2018-04-27T15:46:57.555Z,21.80
2018-04-27T15:49:24.178Z,21.70
2018-04-27T15:51:50.801Z,21.70
2018-04-27T15:54:17.383Z,21.70
2018-04-27T15:56:43.940Z,21.50
2018-04-27T15:59:10.511Z,21.40
2018-04-27T16:01:37.147Z,21.30
2018-04-27T16:04:03.776Z,21.20
2018-04-27T16:06:31.296Z,21.10
2018-04-27T16:08:58.246Z,21.00
2018-04-27T16:11:25.180Z,20.90
2018-04-27T16:13:55.776Z,20.90
2018-04-27T16:16:23.231Z,21.00
2018-04-27T16:18:50.823Z,20.90
2018-04-27T16:21:17.458Z,20.80
2018-04-27T16:23:44.080Z,20.70
2018-04-27T16:26:11.082Z,20.70
2018-04-27T16:28:37.726Z,20.80
2018-04-27T16:31:04.355Z,20.70
2018-04-27T16:33:31.001Z,20.70
2018-04-27T16:35:57.986Z,20.60
2018-04-27T16:38:25.640Z,20.60
2018-04-27T16:40:52.263Z,20.40
2018-04-27T16:43:18.859Z,20.30
2018-04-27T16:45:45.407Z,20.30
2018-04-27T16:48:12.001Z,20.30
2018-04-27T16:50:38.621Z,20.20
2018-04-27T16:53:05.180Z,20.10
2018-04-27T16:55:31.803Z,20.00
2018-04-27T16:57:58.364Z,19.90
2018-04-27T17:00:24.958Z,19.80
2018-04-27T17:02:51.570Z,19.70
2018-04-27T17:05:18.210Z,19.60
2018-04-27T17:07:44.826Z,19.50
2018-04-27T17:10:11.452Z,19.40
2018-04-27T17:12:37.861Z,19.50
2018-04-27T17:15:04.448Z,19.50
2018-04-27T17:17:31.456Z,19.60
2018-04-27T17:19:58.084Z,19.60
2018-04-27T17:22:24.683Z,19.60
2018-04-27T17:24:52.529Z,19.60
2018-04-27T17:27:19.154Z,19.60
2018-04-27T17:29:45.811Z,19.50
2018-04-27T17:32:12.447Z,19.40
2018-04-27T17:34:39.101Z,19.50
2018-04-27T17:37:05.740Z,19.40
2018-04-27T17:39:32.371Z,19.40
2018-04-27T17:41:59.367Z,19.30
2018-04-27T17:44:26.004Z,19.30
2018-04-27T17:46:52.984Z,19.30
2018-04-27T17:49:19.609Z,19.30
2018-04-27T17:51:46.168Z,19.20
2018-04-27T17:54:12.739Z,19.20
2018-04-27T17:56:39.302Z,19.10
2018-04-27T17:59:05.856Z,19.00
2018-04-27T18:01:32.451Z,18.90
2018-04-27T18:03:59.083Z,18.80
2018-04-27T18:06:25.659Z,18.80
2018-04-27T18:08:52.231Z,18.70
2018-04-27T18:11:18.818Z,18.70
2018-04-27T18:13:45.779Z,18.60
2018-04-27T18:16:12.407Z,18.60
2018-04-27T18:18:39.088Z,18.50
2018-04-27T18:21:05.792Z,18.40
2018-04-27T18:23:32.368Z,18.30
2018-04-27T18:25:59.387Z,18.10
2018-04-27T18:28:25.991Z,18.10
2018-04-27T18:30:52.556Z,17.90
2018-04-27T18:33:19.284Z,17.80
2018-04-27T18:35:45.820Z,17.70
2018-04-27T18:38:12.806Z,17.50
2018-04-27T18:40:39.447Z,17.50
2018-04-27T18:43:06.052Z,17.50
2018-04-27T18:45:32.671Z,17.40
2018-04-27T18:47:59.286Z,17.30
2018-04-27T18:50:27.823Z,17.20
2018-04-27T18:52:54.447Z,17.10
2018-04-27T18:57:55.029Z,17.00
2018-04-27T19:00:28.317Z,17.10
2018-04-27T19:02:55.574Z,17.10
2018-04-27T19:05:22.552Z,17.10
2018-04-27T19:07:49.460Z,17.10
2018-04-27T19:10:16.495Z,17.00
2018-04-27T19:12:43.512Z,16.90
2018-04-27T19:15:10.444Z,17.00
2018-04-27T19:17:37.465Z,17.00
2018-04-27T19:20:04.432Z,16.90
2018-04-27T19:22:32.493Z,16.80
2018-04-27T19:24:59.869Z,16.80
2018-04-27T19:27:28.175Z,16.80
2018-04-27T19:29:56.690Z,16.80
2018-04-27T19:32:23.750Z,16.80
2018-04-27T19:34:50.595Z,16.80
2018-04-27T19:37:17.487Z,16.70
2018-04-27T19:39:44.784Z,16.60
2018-04-27T19:42:13.097Z,16.50
2018-04-27T19:44:40.034Z,16.50
2018-04-27T19:47:06.878Z,16.50
2018-04-27T19:49:33.619Z,16.50
2018-04-27T19:52:00.791Z,16.50
2018-04-27T19:54:28.041Z,16.40
2018-04-27T19:56:58.019Z,16.40
2018-04-27T19:59:25.313Z,16.30
2018-04-27T20:01:52.986Z,16.30
2018-04-27T20:04:21.261Z,16.30
2018-04-27T20:06:48.516Z,16.20
2018-04-27T20:09:17.659Z,16.20
2018-04-27T20:11:44.798Z,16.20
2018-04-27T20:14:17.460Z,16.00
2018-04-27T20:16:44.089Z,16.00
2018-04-27T20:19:10.707Z,16.00
2018-04-27T20:21:37.331Z,16.00
2018-04-27T20:24:04.979Z,16.00
2018-04-27T20:26:31.579Z,15.90
2018-04-27T20:28:58.256Z,16.00
2018-04-27T20:31:24.912Z,16.10
2018-04-27T20:33:51.593Z,16.10
2018-04-27T20:36:18.605Z,16.10
2018-04-27T20:38:45.253Z,16.10
2018-04-27T20:41:11.860Z,16.10
2018-04-27T20:43:38.492Z,16.00
2018-04-27T20:46:05.495Z,16.00
2018-04-27T20:48:32.400Z,15.90
2018-04-27T20:50:59.407Z,15.70
2018-04-27T20:53:27.960Z,15.70
2018-04-27T20:56:05.475Z,15.50
2018-04-27T20:58:32.147Z,15.60
2018-04-27T21:00:58.777Z,15.50
2018-04-27T21:03:25.444Z,15.40
2018-04-27T21:05:52.118Z,15.40
2018-04-27T21:08:18.703Z,15.40
2018-04-27T21:10:45.327Z,15.40
2018-04-27T21:13:11.979Z,15.40
2018-04-27T21:15:38.582Z,15.30
2018-04-27T21:18:05.207Z,15.20
2018-04-27T21:20:32.212Z,15.20
2018-04-27T21:22:58.811Z,15.20
2018-04-27T21:25:34.039Z,15.20
2018-04-27T21:28:01.564Z,15.20
2018-04-27T21:30:37.384Z,15.20
2018-04-27T21:33:07.859Z,15.10
2018-04-27T21:35:42.398Z,15.10
2018-04-27T21:38:19.191Z,15.00
2018-04-27T21:40:45.824Z,15.00
2018-04-27T21:43:12.456Z,14.80
2018-04-27T21:45:39.415Z,14.70
2018-04-27T21:48:06.427Z,14.60
2018-04-27T21:50:33.058Z,14.60
2018-04-27T21:52:59.655Z,14.50
2018-04-27T21:55:26.312Z,14.50
2018-04-27T21:57:56.264Z,14.60
2018-04-27T22:00:24.816Z,14.60
2018-04-27T22:02:55.295Z,14.40
2018-04-27T22:08:43.623Z,14.20
2018-04-27T22:11:11.103Z,14.30
2018-04-27T22:13:37.705Z,14.40
2018-04-27T22:16:04.335Z,14.40
2018-04-27T22:18:31.339Z,14.50
2018-04-27T22:20:57.932Z,14.50
2018-04-27T22:23:26.519Z,14.50
2018-04-27T22:25:53.189Z,14.50
2018-04-27T22:28:39.727Z,14.40
2018-04-27T22:31:06.356Z,14.40
2018-04-27T22:33:48.223Z,14.20
2018-04-27T22:36:20.905Z,14.20
2018-04-27T22:41:56.619Z,14.00
2018-04-27T22:44:24.066Z,13.80
2018-04-27T22:46:54.518Z,13.70
2018-04-27T22:49:21.115Z,13.50
2018-04-27T22:51:48.122Z,13.60
2018-04-27T22:57:17.449Z,13.70
2018-04-27T22:59:45.734Z,13.70
2018-04-27T23:02:21.486Z,13.80
2018-04-27T23:04:48.922Z,13.80
2018-04-27T23:07:21.812Z,13.90
2018-04-27T23:09:48.830Z,14.00
2018-04-27T23:12:15.435Z,14.00
2018-04-27T23:14:42.423Z,14.00
2018-04-27T23:17:11.910Z,14.00
2018-04-27T23:19:38.862Z,13.90
2018-04-27T23:22:27.759Z,13.90
2018-04-27T23:27:55.007Z,14.00
2018-04-27T23:30:21.715Z,14.00
2018-04-27T23:32:48.308Z,14.00
2018-04-27T23:35:14.963Z,13.90
2018-04-27T23:37:41.584Z,13.90
2018-04-27T23:40:08.196Z,13.80
2018-04-27T23:42:34.862Z,13.70
2018-04-27T23:45:01.491Z,13.70
2018-04-27T23:47:28.085Z,13.70
2018-04-27T23:49:54.726Z,13.70
2018-04-27T23:52:21.339Z,13.60
2018-04-27T23:54:47.940Z,13.50
2018-04-27T23:57:16.526Z,13.50
2018-04-27T23:59:43.960Z,13.60
